首页
METAR-TAF:

METAR-TAF

机场 :

愛麗斯泉機場

愛麗斯泉, 澳大利亚

纬度: 23-48S, 经度: 133-53E, 海拔: 545米

当前天气观测

该预报发布于17分钟前的04:00 UTC
风速9节,风向南转南东
温度 15°C
湿度 29%
气压 1024 hPa
能见度10公里或以上

METAR: YBAS 230400Z AUTO 15009KT 9999 // NCD 15/M03 Q1024 RF00.0/000.0

时间: 13:47 (04:17 UTC)

预报

该预报发布于5小时和11分钟前的23:06 UTC
预报有效从23日的 00点(UTC)到 23日的 24点(UTC)
风速10节,风向东南
能见度10公里或以上
1500米以下无云,无积雨云
从 23日的 0900点(UTC)
风速6节,风向东南
能见度10公里或以上
1500米以下无云,无积雨云

TAF: YBAS 222306Z 2300/2324 14010KT CAVOK FM230900 14006KT CAVOK

超过4000个机场的气象观测和天气预报(METAR&TAF报告)。

可查询的气象台以黄色和红色小点在地图上表示。

将鼠标移到小点上方,可查看气象台名称。

然后点击查看天气观测和预报。

如需切换地图:点击带黑十字的绿色按钮放大地图;点击带横线的绿色按钮缩小地图;或者点击绿色箭头查看邻近地区的地图。


METAR-TAF: